Terminal Aerodrome Forecast
Issued by NWS Sterling, VA

Current Version | Previous Version | Graphics & Text | Print | Product List | Glossary On
Versions: 1 2 3 4 5 6 7 8 9 10 11 12 13 14 15 16
874
FTUS41 KLWX 130535
TAFMRB
TAF
KMRB 130535Z 1306/1406 29011G20KT P6SM SCT030 BKN045
     FM130800 30017G37KT P6SM SCT030 BKN045
     FM132100 30020G33KT P6SM SCT050
     FM132300 31019G33KT P6SM FEW050
     FM140300 31013G24KT P6SM FEW050=

USA.gov is the U.S. government's official web portal to all federal, state and local government web resources and services.